sensor_id;sensor_type;location;lat;lon;timestamp;P1;durP1;ratioP1;P2;durP2;ratioP2
1320;SDS011;653;51.480;11.992;2022-07-09T00:01:27;6.93;;;4.80;;
1320;SDS011;653;51.480;11.992;2022-07-09T00:03:53;8.27;;;5.07;;
1320;SDS011;653;51.480;11.992;2022-07-09T00:06:20;6.50;;;5.70;;
1320;SDS011;653;51.480;11.992;2022-07-09T00:08:45;5.70;;;4.80;;
1320;SDS011;653;51.480;11.992;2022-07-09T00:11:11;5.77;;;4.90;;
1320;SDS011;653;51.480;11.992;2022-07-09T00:13:36;7.43;;;4.23;;
1320;SDS011;653;51.480;11.992;2022-07-09T00:16:01;6.60;;;5.40;;
1320;SDS011;653;51.480;11.992;2022-07-09T00:18:27;7.43;;;5.70;;
1320;SDS011;653;51.480;11.992;2022-07-09T00:20:55;7.10;;;5.07;;
1320;SDS011;653;51.480;11.992;2022-07-09T00:23:21;7.37;;;4.90;;
1320;SDS011;653;51.480;11.992;2022-07-09T00:25:46;5.83;;;5.23;;
1320;SDS011;653;51.480;11.992;2022-07-09T00:28:11;7.53;;;5.20;;
1320;SDS011;653;51.480;11.992;2022-07-09T00:30:37;5.60;;;5.00;;
1320;SDS011;653;51.480;11.992;2022-07-09T00:33:02;5.93;;;5.37;;
1320;SDS011;653;51.480;11.992;2022-07-09T00:35:27;6.90;;;5.50;;
1320;SDS011;653;51.480;11.992;2022-07-09T00:37:53;5.20;;;4.70;;
1320;SDS011;653;51.480;11.992;2022-07-09T00:40:18;6.57;;;4.87;;
1320;SDS011;653;51.480;11.992;2022-07-09T00:42:44;6.70;;;4.33;;
1320;SDS011;653;51.480;11.992;2022-07-09T00:45:09;5.73;;;5.13;;
1320;SDS011;653;51.480;11.992;2022-07-09T00:47:35;6.50;;;4.80;;
1320;SDS011;653;51.480;11.992;2022-07-09T00:50:00;5.83;;;5.20;;
1320;SDS011;653;51.480;11.992;2022-07-09T00:52:26;6.10;;;5.00;;
1320;SDS011;653;51.480;11.992;2022-07-09T00:54:52;6.30;;;5.00;;
1320;SDS011;653;51.480;11.992;2022-07-09T00:57:18;6.00;;;5.43;;
1320;SDS011;653;51.480;11.992;2022-07-09T00:59:45;10.17;;;5.67;;
1320;SDS011;653;51.480;11.992;2022-07-09T01:02:10;5.80;;;4.93;;
1320;SDS011;653;51.480;11.992;2022-07-09T01:04:36;8.27;;;5.53;;
1320;SDS011;653;51.480;11.992;2022-07-09T01:07:03;8.83;;;4.93;;
1320;SDS011;653;51.480;11.992;2022-07-09T01:09:28;9.60;;;6.00;;
1320;SDS011;653;51.480;11.992;2022-07-09T01:11:54;8.57;;;5.70;;
1320;SDS011;653;51.480;11.992;2022-07-09T01:14:20;7.90;;;5.47;;
1320;SDS011;653;51.480;11.992;2022-07-09T01:16:45;6.83;;;5.13;;
1320;SDS011;653;51.480;11.992;2022-07-09T01:19:11;9.60;;;6.37;;
1320;SDS011;653;51.480;11.992;2022-07-09T01:21:37;9.00;;;6.30;;
1320;SDS011;653;51.480;11.992;2022-07-09T01:24:02;7.40;;;5.77;;
1320;SDS011;653;51.480;11.992;2022-07-09T01:26:28;6.30;;;5.70;;
1320;SDS011;653;51.480;11.992;2022-07-09T01:28:53;8.73;;;5.97;;
1320;SDS011;653;51.480;11.992;2022-07-09T01:31:19;5.90;;;5.30;;
1320;SDS011;653;51.480;11.992;2022-07-09T01:33:44;7.00;;;5.77;;
1320;SDS011;653;51.480;11.992;2022-07-09T01:36:10;7.73;;;5.60;;
1320;SDS011;653;51.480;11.992;2022-07-09T01:38:36;5.73;;;5.10;;
1320;SDS011;653;51.480;11.992;2022-07-09T01:41:02;6.07;;;4.90;;
1320;SDS011;653;51.480;11.992;2022-07-09T01:43:28;5.73;;;5.33;;
1320;SDS011;653;51.480;11.992;2022-07-09T01:45:53;8.23;;;5.20;;
1320;SDS011;653;51.480;11.992;2022-07-09T01:48:18;7.47;;;5.23;;
1320;SDS011;653;51.480;11.992;2022-07-09T01:50:44;7.40;;;5.10;;
1320;SDS011;653;51.480;11.992;2022-07-09T01:53:09;10.70;;;5.53;;
1320;SDS011;653;51.480;11.992;2022-07-09T01:55:35;8.40;;;5.83;;
1320;SDS011;653;51.480;11.992;2022-07-09T01:58:00;8.40;;;5.43;;
1320;SDS011;653;51.480;11.992;2022-07-09T02:00:25;5.80;;;5.20;;
1320;SDS011;653;51.480;11.992;2022-07-09T02:02:53;6.83;;;5.37;;
1320;SDS011;653;51.480;11.992;2022-07-09T02:05:19;5.57;;;4.97;;
1320;SDS011;653;51.480;11.992;2022-07-09T02:07:44;7.40;;;5.73;;
1320;SDS011;653;51.480;11.992;2022-07-09T02:10:10;6.30;;;5.20;;
1320;SDS011;653;51.480;11.992;2022-07-09T02:12:35;6.77;;;5.13;;
1320;SDS011;653;51.480;11.992;2022-07-09T02:15:01;6.10;;;5.50;;
1320;SDS011;653;51.480;11.992;2022-07-09T02:17:26;5.83;;;5.30;;
1320;SDS011;653;51.480;11.992;2022-07-09T02:19:52;8.20;;;6.30;;
1320;SDS011;653;51.480;11.992;2022-07-09T02:22:17;7.13;;;6.43;;
1320;SDS011;653;51.480;11.992;2022-07-09T02:24:42;10.70;;;6.40;;
1320;SDS011;653;51.480;11.992;2022-07-09T02:27:08;7.83;;;5.10;;
1320;SDS011;653;51.480;11.992;2022-07-09T02:29:34;6.37;;;5.73;;
1320;SDS011;653;51.480;11.992;2022-07-09T02:31:59;7.03;;;5.97;;
1320;SDS011;653;51.480;11.992;2022-07-09T02:34:24;6.73;;;6.03;;
1320;SDS011;653;51.480;11.992;2022-07-09T02:36:50;10.37;;;6.20;;
1320;SDS011;653;51.480;11.992;2022-07-09T02:39:16;6.30;;;5.70;;
1320;SDS011;653;51.480;11.992;2022-07-09T02:41:42;9.20;;;6.00;;
1320;SDS011;653;51.480;11.992;2022-07-09T02:44:08;8.83;;;6.70;;
1320;SDS011;653;51.480;11.992;2022-07-09T02:46:33;9.07;;;7.10;;
1320;SDS011;653;51.480;11.992;2022-07-09T02:48:58;8.00;;;6.87;;
1320;SDS011;653;51.480;11.992;2022-07-09T02:51:24;7.13;;;6.43;;
1320;SDS011;653;51.480;11.992;2022-07-09T02:53:49;13.07;;;6.57;;
1320;SDS011;653;51.480;11.992;2022-07-09T02:56:14;8.80;;;6.50;;
1320;SDS011;653;51.480;11.992;2022-07-09T02:58:39;9.53;;;7.00;;
1320;SDS011;653;51.480;11.992;2022-07-09T03:01:05;6.63;;;6.03;;
1320;SDS011;653;51.480;11.992;2022-07-09T03:03:31;7.57;;;6.80;;
1320;SDS011;653;51.480;11.992;2022-07-09T03:05:59;7.83;;;6.27;;
1320;SDS011;653;51.480;11.992;2022-07-09T03:08:25;10.30;;;7.47;;
1320;SDS011;653;51.480;11.992;2022-07-09T03:10:50;7.83;;;5.93;;
1320;SDS011;653;51.480;11.992;2022-07-09T03:13:16;6.93;;;5.87;;
1320;SDS011;653;51.480;11.992;2022-07-09T03:15:41;6.63;;;5.47;;
1320;SDS011;653;51.480;11.992;2022-07-09T03:18:06;8.17;;;6.13;;
1320;SDS011;653;51.480;11.992;2022-07-09T03:20:38;8.67;;;6.40;;
1320;SDS011;653;51.480;11.992;2022-07-09T03:23:04;7.83;;;5.50;;
1320;SDS011;653;51.480;11.992;2022-07-09T03:25:30;8.20;;;6.57;;
1320;SDS011;653;51.480;11.992;2022-07-09T03:27:55;7.13;;;6.03;;
1320;SDS011;653;51.480;11.992;2022-07-09T03:30:21;8.20;;;7.33;;
1320;SDS011;653;51.480;11.992;2022-07-09T03:32:48;8.20;;;5.53;;
1320;SDS011;653;51.480;11.992;2022-07-09T03:35:13;7.90;;;6.63;;
1320;SDS011;653;51.480;11.992;2022-07-09T03:37:39;6.60;;;5.80;;
1320;SDS011;653;51.480;11.992;2022-07-09T03:40:04;9.47;;;6.37;;
1320;SDS011;653;51.480;11.992;2022-07-09T03:42:30;8.90;;;6.10;;
1320;SDS011;653;51.480;11.992;2022-07-09T03:44:55;8.23;;;6.17;;
1320;SDS011;653;51.480;11.992;2022-07-09T03:47:21;6.67;;;5.60;;
1320;SDS011;653;51.480;11.992;2022-07-09T03:49:46;14.63;;;6.10;;
1320;SDS011;653;51.480;11.992;2022-07-09T03:52:11;8.60;;;5.90;;
1320;SDS011;653;51.480;11.992;2022-07-09T03:54:37;6.17;;;4.60;;
1320;SDS011;653;51.480;11.992;2022-07-09T03:57:02;6.30;;;5.67;;
1320;SDS011;653;51.480;11.992;2022-07-09T03:59:28;7.20;;;5.77;;
1320;SDS011;653;51.480;11.992;2022-07-09T04:01:53;8.77;;;5.90;;
1320;SDS011;653;51.480;11.992;2022-07-09T04:04:18;7.87;;;5.30;;
1320;SDS011;653;51.480;11.992;2022-07-09T04:06:44;9.57;;;5.70;;
1320;SDS011;653;51.480;11.992;2022-07-09T04:09:09;8.27;;;4.70;;
1320;SDS011;653;51.480;11.992;2022-07-09T04:11:34;6.37;;;5.40;;
1320;SDS011;653;51.480;11.992;2022-07-09T04:14:00;6.27;;;5.67;;
1320;SDS011;653;51.480;11.992;2022-07-09T04:16:27;8.10;;;5.40;;
1320;SDS011;653;51.480;11.992;2022-07-09T04:18:54;6.10;;;5.20;;
1320;SDS011;653;51.480;11.992;2022-07-09T04:21:19;8.47;;;5.80;;
1320;SDS011;653;51.480;11.992;2022-07-09T04:24:03;8.70;;;5.20;;
1320;SDS011;653;51.480;11.992;2022-07-09T04:26:45;5.67;;;5.07;;
1320;SDS011;653;51.480;11.992;2022-07-09T04:29:19;9.70;;;5.10;;
1320;SDS011;653;51.480;11.992;2022-07-09T04:31:44;7.70;;;5.27;;
1320;SDS011;653;51.480;11.992;2022-07-09T04:34:10;9.10;;;5.20;;
1320;SDS011;653;51.480;11.992;2022-07-09T04:36:35;5.90;;;4.87;;
1320;SDS011;653;51.480;11.992;2022-07-09T04:39:01;7.80;;;4.93;;
1320;SDS011;653;51.480;11.992;2022-07-09T04:41:26;6.73;;;5.53;;
1320;SDS011;653;51.480;11.992;2022-07-09T04:43:53;5.37;;;4.80;;
1320;SDS011;653;51.480;11.992;2022-07-09T04:46:18;7.67;;;5.50;;
1320;SDS011;653;51.480;11.992;2022-07-09T04:48:46;8.27;;;5.20;;
1320;SDS011;653;51.480;11.992;2022-07-09T04:51:11;8.13;;;5.20;;
1320;SDS011;653;51.480;11.992;2022-07-09T04:53:37;8.03;;;5.63;;
1320;SDS011;653;51.480;11.992;2022-07-09T04:56:02;8.17;;;5.87;;
1320;SDS011;653;51.480;11.992;2022-07-09T04:58:28;7.67;;;5.70;;
1320;SDS011;653;51.480;11.992;2022-07-09T05:00:54;7.80;;;5.20;;
1320;SDS011;653;51.480;11.992;2022-07-09T05:03:19;7.47;;;5.47;;
1320;SDS011;653;51.480;11.992;2022-07-09T05:05:45;12.27;;;5.40;;
1320;SDS011;653;51.480;11.992;2022-07-09T05:08:10;6.90;;;4.90;;
1320;SDS011;653;51.480;11.992;2022-07-09T05:10:35;9.50;;;5.77;;
1320;SDS011;653;51.480;11.992;2022-07-09T05:13:01;8.67;;;6.07;;
1320;SDS011;653;51.480;11.992;2022-07-09T05:15:26;6.40;;;5.63;;
1320;SDS011;653;51.480;11.992;2022-07-09T05:17:55;8.23;;;5.93;;
1320;SDS011;653;51.480;11.992;2022-07-09T05:20:21;6.77;;;5.67;;
1320;SDS011;653;51.480;11.992;2022-07-09T05:22:46;11.20;;;6.47;;
1320;SDS011;653;51.480;11.992;2022-07-09T05:25:11;8.73;;;6.10;;
1320;SDS011;653;51.480;11.992;2022-07-09T05:27:41;8.37;;;6.20;;
1320;SDS011;653;51.480;11.992;2022-07-09T05:30:07;8.77;;;6.07;;
1320;SDS011;653;51.480;11.992;2022-07-09T05:32:33;13.13;;;7.73;;
1320;SDS011;653;51.480;11.992;2022-07-09T05:34:58;14.50;;;7.37;;
1320;SDS011;653;51.480;11.992;2022-07-09T05:37:24;8.33;;;6.37;;
1320;SDS011;653;51.480;11.992;2022-07-09T05:39:49;14.30;;;7.53;;
1320;SDS011;653;51.480;11.992;2022-07-09T05:42:14;16.10;;;7.17;;
1320;SDS011;653;51.480;11.992;2022-07-09T05:44:40;7.10;;;6.40;;
1320;SDS011;653;51.480;11.992;2022-07-09T05:47:05;10.63;;;6.23;;
1320;SDS011;653;51.480;11.992;2022-07-09T05:49:31;14.90;;;7.10;;
1320;SDS011;653;51.480;11.992;2022-07-09T05:51:56;8.70;;;7.13;;
1320;SDS011;653;51.480;11.992;2022-07-09T05:54:22;12.77;;;6.50;;
1320;SDS011;653;51.480;11.992;2022-07-09T05:56:47;7.63;;;6.53;;
1320;SDS011;653;51.480;11.992;2022-07-09T05:59:12;11.00;;;6.97;;
1320;SDS011;653;51.480;11.992;2022-07-09T06:01:38;9.00;;;6.20;;
1320;SDS011;653;51.480;11.992;2022-07-09T06:04:07;9.50;;;5.87;;
1320;SDS011;653;51.480;11.992;2022-07-09T06:06:33;6.83;;;5.90;;
1320;SDS011;653;51.480;11.992;2022-07-09T06:08:59;15.17;;;6.77;;
1320;SDS011;653;51.480;11.992;2022-07-09T06:11:24;7.17;;;6.47;;
1320;SDS011;653;51.480;11.992;2022-07-09T06:13:49;9.67;;;5.43;;
1320;SDS011;653;51.480;11.992;2022-07-09T06:16:15;8.43;;;6.37;;
1320;SDS011;653;51.480;11.992;2022-07-09T06:18:40;9.97;;;5.93;;
1320;SDS011;653;51.480;11.992;2022-07-09T06:21:05;8.23;;;5.97;;
1320;SDS011;653;51.480;11.992;2022-07-09T06:23:31;8.57;;;6.10;;
1320;SDS011;653;51.480;11.992;2022-07-09T06:25:56;7.23;;;6.20;;
1320;SDS011;653;51.480;11.992;2022-07-09T06:28:21;7.33;;;6.20;;
1320;SDS011;653;51.480;11.992;2022-07-09T06:30:47;9.50;;;6.80;;
1320;SDS011;653;51.480;11.992;2022-07-09T06:33:12;10.70;;;6.40;;
1320;SDS011;653;51.480;11.992;2022-07-09T06:35:37;8.93;;;5.90;;
1320;SDS011;653;51.480;11.992;2022-07-09T06:38:03;7.27;;;5.30;;
1320;SDS011;653;51.480;11.992;2022-07-09T06:40:29;9.37;;;6.67;;
1320;SDS011;653;51.480;11.992;2022-07-09T06:42:54;12.43;;;6.00;;
1320;SDS011;653;51.480;11.992;2022-07-09T06:45:20;17.50;;;7.97;;
1320;SDS011;653;51.480;11.992;2022-07-09T06:47:45;12.37;;;6.60;;
1320;SDS011;653;51.480;11.992;2022-07-09T06:50:11;9.77;;;7.70;;
1320;SDS011;653;51.480;11.992;2022-07-09T06:52:36;8.70;;;7.33;;
1320;SDS011;653;51.480;11.992;2022-07-09T06:55:01;7.83;;;6.30;;
1320;SDS011;653;51.480;11.992;2022-07-09T06:57:27;10.23;;;6.60;;
1320;SDS011;653;51.480;11.992;2022-07-09T06:59:53;9.13;;;6.40;;
1320;SDS011;653;51.480;11.992;2022-07-09T07:02:19;8.00;;;7.20;;
1320;SDS011;653;51.480;11.992;2022-07-09T07:04:44;7.63;;;6.67;;
1320;SDS011;653;51.480;11.992;2022-07-09T07:07:10;11.90;;;6.80;;
1320;SDS011;653;51.480;11.992;2022-07-09T07:09:35;9.70;;;6.73;;
1320;SDS011;653;51.480;11.992;2022-07-09T07:12:01;11.30;;;8.10;;
1320;SDS011;653;51.480;11.992;2022-07-09T07:14:26;9.70;;;6.60;;
1320;SDS011;653;51.480;11.992;2022-07-09T07:16:52;7.77;;;6.63;;
1320;SDS011;653;51.480;11.992;2022-07-09T07:19:18;6.80;;;5.93;;
1320;SDS011;653;51.480;11.992;2022-07-09T07:21:46;11.80;;;7.23;;
1320;SDS011;653;51.480;11.992;2022-07-09T07:24:11;10.27;;;7.57;;
1320;SDS011;653;51.480;11.992;2022-07-09T07:26:37;8.83;;;6.60;;
1320;SDS011;653;51.480;11.992;2022-07-09T07:29:02;7.07;;;6.37;;
1320;SDS011;653;51.480;11.992;2022-07-09T07:31:28;10.27;;;7.30;;
1320;SDS011;653;51.480;11.992;2022-07-09T07:33:55;10.23;;;6.90;;
1320;SDS011;653;51.480;11.992;2022-07-09T07:36:23;7.23;;;6.50;;
1320;SDS011;653;51.480;11.992;2022-07-09T07:38:49;8.37;;;6.40;;
1320;SDS011;653;51.480;11.992;2022-07-09T07:41:14;8.67;;;7.73;;
1320;SDS011;653;51.480;11.992;2022-07-09T07:43:42;9.67;;;7.20;;
1320;SDS011;653;51.480;11.992;2022-07-09T07:46:07;7.50;;;6.33;;
1320;SDS011;653;51.480;11.992;2022-07-09T07:48:32;8.63;;;7.80;;
1320;SDS011;653;51.480;11.992;2022-07-09T07:51:00;10.77;;;8.70;;
1320;SDS011;653;51.480;11.992;2022-07-09T07:53:26;10.07;;;7.83;;
1320;SDS011;653;51.480;11.992;2022-07-09T07:55:51;12.60;;;8.20;;
1320;SDS011;653;51.480;11.992;2022-07-09T07:58:17;10.53;;;8.03;;
1320;SDS011;653;51.480;11.992;2022-07-09T08:00:42;11.23;;;7.47;;
1320;SDS011;653;51.480;11.992;2022-07-09T08:03:07;8.17;;;7.20;;
1320;SDS011;653;51.480;11.992;2022-07-09T08:05:33;12.40;;;8.33;;
1320;SDS011;653;51.480;11.992;2022-07-09T08:07:59;8.80;;;7.87;;
1320;SDS011;653;51.480;11.992;2022-07-09T08:10:24;7.80;;;7.03;;
1320;SDS011;653;51.480;11.992;2022-07-09T08:12:51;8.93;;;6.77;;
1320;SDS011;653;51.480;11.992;2022-07-09T08:15:16;6.87;;;6.20;;
1320;SDS011;653;51.480;11.992;2022-07-09T08:17:42;7.60;;;6.80;;
1320;SDS011;653;51.480;11.992;2022-07-09T08:20:07;9.10;;;7.40;;
1320;SDS011;653;51.480;11.992;2022-07-09T08:22:33;7.83;;;6.33;;
1320;SDS011;653;51.480;11.992;2022-07-09T08:24:58;7.47;;;6.77;;
1320;SDS011;653;51.480;11.992;2022-07-09T08:27:24;6.90;;;6.30;;
1320;SDS011;653;51.480;11.992;2022-07-09T08:29:49;11.83;;;7.23;;
1320;SDS011;653;51.480;11.992;2022-07-09T08:32:15;10.23;;;7.63;;
1320;SDS011;653;51.480;11.992;2022-07-09T08:34:40;9.30;;;6.80;;
1320;SDS011;653;51.480;11.992;2022-07-09T08:37:06;7.60;;;6.80;;
1320;SDS011;653;51.480;11.992;2022-07-09T08:39:31;8.37;;;6.57;;
1320;SDS011;653;51.480;11.992;2022-07-09T08:41:58;7.90;;;7.03;;
1320;SDS011;653;51.480;11.992;2022-07-09T08:44:24;6.97;;;6.30;;
1320;SDS011;653;51.480;11.992;2022-07-09T08:46:51;7.10;;;6.50;;
1320;SDS011;653;51.480;11.992;2022-07-09T08:49:16;8.60;;;6.97;;
1320;SDS011;653;51.480;11.992;2022-07-09T08:51:43;8.70;;;7.80;;
1320;SDS011;653;51.480;11.992;2022-07-09T08:54:09;7.13;;;6.53;;
1320;SDS011;653;51.480;11.992;2022-07-09T08:56:38;7.80;;;6.37;;
1320;SDS011;653;51.480;11.992;2022-07-09T08:59:05;8.27;;;6.70;;
1320;SDS011;653;51.480;11.992;2022-07-09T09:01:30;8.10;;;7.00;;
1320;SDS011;653;51.480;11.992;2022-07-09T09:03:56;7.63;;;5.60;;
1320;SDS011;653;51.480;11.992;2022-07-09T09:06:21;9.10;;;7.03;;
1320;SDS011;653;51.480;11.992;2022-07-09T09:08:48;6.23;;;5.30;;
1320;SDS011;653;51.480;11.992;2022-07-09T09:11:21;7.20;;;5.47;;
1320;SDS011;653;51.480;11.992;2022-07-09T09:13:50;5.87;;;5.37;;
1320;SDS011;653;51.480;11.992;2022-07-09T09:16:17;5.50;;;4.87;;
1320;SDS011;653;51.480;11.992;2022-07-09T09:18:44;4.97;;;4.57;;
1320;SDS011;653;51.480;11.992;2022-07-09T09:21:13;5.50;;;5.00;;
1320;SDS011;653;51.480;11.992;2022-07-09T09:26:10;7.20;;;5.30;;
1320;SDS011;653;51.480;11.992;2022-07-09T09:31:21;4.77;;;4.30;;
1320;SDS011;653;51.480;11.992;2022-07-09T09:34:23;4.73;;;4.40;;
1320;SDS011;653;51.480;11.992;2022-07-09T09:36:42;5.10;;;3.90;;
1320;SDS011;653;51.480;11.992;2022-07-09T09:41:49;4.47;;;4.10;;
1320;SDS011;653;51.480;11.992;2022-07-09T09:44:16;4.23;;;3.40;;
1320;SDS011;653;51.480;11.992;2022-07-09T09:46:51;4.57;;;2.67;;
1320;SDS011;653;51.480;11.992;2022-07-09T09:49:17;3.37;;;3.07;;
1320;SDS011;653;51.480;11.992;2022-07-09T09:51:47;3.10;;;2.80;;
1320;SDS011;653;51.480;11.992;2022-07-09T09:54:15;3.63;;;3.33;;
1320;SDS011;653;51.480;11.992;2022-07-09T09:56:41;3.73;;;3.23;;
1320;SDS011;653;51.480;11.992;2022-07-09T09:59:07;3.63;;;3.33;;
1320;SDS011;653;51.480;11.992;2022-07-09T10:01:33;2.70;;;2.50;;
1320;SDS011;653;51.480;11.992;2022-07-09T10:03:58;2.30;;;2.10;;
1320;SDS011;653;51.480;11.992;2022-07-09T10:06:24;2.37;;;2.20;;
1320;SDS011;653;51.480;11.992;2022-07-09T10:08:51;1.60;;;1.50;;
1320;SDS011;653;51.480;11.992;2022-07-09T10:11:17;2.10;;;1.33;;
1320;SDS011;653;51.480;11.992;2022-07-09T10:13:49;2.40;;;2.17;;
1320;SDS011;653;51.480;11.992;2022-07-09T10:16:18;1.70;;;1.40;;
1320;SDS011;653;51.480;11.992;2022-07-09T10:18:52;2.07;;;1.40;;
1320;SDS011;653;51.480;11.992;2022-07-09T10:21:18;1.63;;;1.50;;
1320;SDS011;653;51.480;11.992;2022-07-09T10:23:50;2.60;;;2.10;;
1320;SDS011;653;51.480;11.992;2022-07-09T10:26:15;2.23;;;2.00;;
1320;SDS011;653;51.480;11.992;2022-07-09T10:28:41;3.90;;;1.63;;
1320;SDS011;653;51.480;11.992;2022-07-09T10:31:07;1.80;;;1.70;;
1320;SDS011;653;51.480;11.992;2022-07-09T10:33:33;1.90;;;1.80;;
1320;SDS011;653;51.480;11.992;2022-07-09T10:36:08;2.23;;;1.63;;
1320;SDS011;653;51.480;11.992;2022-07-09T10:38:36;1.70;;;1.60;;
1320;SDS011;653;51.480;11.992;2022-07-09T10:41:04;1.83;;;1.73;;
1320;SDS011;653;51.480;11.992;2022-07-09T10:43:42;2.57;;;2.00;;
1320;SDS011;653;51.480;11.992;2022-07-09T10:46:13;2.43;;;2.00;;
1320;SDS011;653;51.480;11.992;2022-07-09T10:48:39;2.10;;;2.00;;
1320;SDS011;653;51.480;11.992;2022-07-09T10:51:05;1.73;;;1.63;;
1320;SDS011;653;51.480;11.992;2022-07-09T10:53:30;2.30;;;2.10;;
1320;SDS011;653;51.480;11.992;2022-07-09T10:55:56;2.40;;;2.07;;
1320;SDS011;653;51.480;11.992;2022-07-09T10:58:23;2.70;;;2.50;;
1320;SDS011;653;51.480;11.992;2022-07-09T11:00:56;2.23;;;2.07;;
1320;SDS011;653;51.480;11.992;2022-07-09T11:03:29;2.40;;;1.90;;
1320;SDS011;653;51.480;11.992;2022-07-09T11:05:56;2.27;;;2.07;;
1320;SDS011;653;51.480;11.992;2022-07-09T11:08:21;2.73;;;1.83;;
1320;SDS011;653;51.480;11.992;2022-07-09T11:10:47;2.37;;;2.17;;
1320;SDS011;653;51.480;11.992;2022-07-09T11:13:12;2.43;;;2.23;;
1320;SDS011;653;51.480;11.992;2022-07-09T11:15:38;2.40;;;2.20;;
1320;SDS011;653;51.480;11.992;2022-07-09T11:18:04;2.23;;;1.93;;
1320;SDS011;653;51.480;11.992;2022-07-09T11:20:32;2.70;;;2.50;;
1320;SDS011;653;51.480;11.992;2022-07-09T11:23:01;4.80;;;2.80;;
1320;SDS011;653;51.480;11.992;2022-07-09T11:25:27;2.70;;;2.50;;
1320;SDS011;653;51.480;11.992;2022-07-09T11:27:54;3.33;;;3.10;;
1320;SDS011;653;51.480;11.992;2022-07-09T11:30:20;2.97;;;2.77;;
1320;SDS011;653;51.480;11.992;2022-07-09T11:32:46;3.60;;;3.30;;
1320;SDS011;653;51.480;11.992;2022-07-09T11:35:12;3.13;;;2.93;;
1320;SDS011;653;51.480;11.992;2022-07-09T11:37:38;12.10;;;3.20;;
1320;SDS011;653;51.480;11.992;2022-07-09T11:40:04;3.23;;;2.43;;
1320;SDS011;653;51.480;11.992;2022-07-09T11:42:30;4.50;;;2.97;;
1320;SDS011;653;51.480;11.992;2022-07-09T11:44:56;3.47;;;3.17;;
1320;SDS011;653;51.480;11.992;2022-07-09T11:47:33;3.13;;;2.93;;
1320;SDS011;653;51.480;11.992;2022-07-09T11:52:46;5.40;;;3.67;;
1320;SDS011;653;51.480;11.992;2022-07-09T11:55:15;3.77;;;3.00;;
1320;SDS011;653;51.480;11.992;2022-07-09T11:57:54;3.40;;;3.10;;
1320;SDS011;653;51.480;11.992;2022-07-09T12:00:21;2.80;;;2.60;;
1320;SDS011;653;51.480;11.992;2022-07-09T12:02:48;3.30;;;3.10;;
1320;SDS011;653;51.480;11.992;2022-07-09T12:05:23;3.20;;;2.97;;
1320;SDS011;653;51.480;11.992;2022-07-09T12:07:56;3.20;;;3.00;;
1320;SDS011;653;51.480;11.992;2022-07-09T12:10:30;3.37;;;3.17;;
1320;SDS011;653;51.480;11.992;2022-07-09T12:13:00;3.57;;;3.27;;
1320;SDS011;653;51.480;11.992;2022-07-09T12:15:26;3.57;;;3.27;;
1320;SDS011;653;51.480;11.992;2022-07-09T12:17:56;2.73;;;2.53;;
1320;SDS011;653;51.480;11.992;2022-07-09T12:20:23;3.53;;;3.23;;
1320;SDS011;653;51.480;11.992;2022-07-09T12:22:50;3.17;;;2.87;;
1320;SDS011;653;51.480;11.992;2022-07-09T12:25:16;3.77;;;3.00;;
1320;SDS011;653;51.480;11.992;2022-07-09T12:27:41;2.83;;;2.63;;
1320;SDS011;653;51.480;11.992;2022-07-09T12:30:07;4.60;;;3.07;;
1320;SDS011;653;51.480;11.992;2022-07-09T12:32:33;2.27;;;2.07;;
1320;SDS011;653;51.480;11.992;2022-07-09T12:34:59;3.23;;;2.47;;
1320;SDS011;653;51.480;11.992;2022-07-09T12:37:25;2.47;;;2.13;;
1320;SDS011;653;51.480;11.992;2022-07-09T12:39:50;3.83;;;2.40;;
1320;SDS011;653;51.480;11.992;2022-07-09T12:42:19;2.57;;;2.37;;
1320;SDS011;653;51.480;11.992;2022-07-09T12:44:45;2.77;;;2.20;;
1320;SDS011;653;51.480;11.992;2022-07-09T12:47:11;2.27;;;1.93;;
1320;SDS011;653;51.480;11.992;2022-07-09T12:49:37;2.30;;;2.10;;
1320;SDS011;653;51.480;11.992;2022-07-09T12:52:02;2.17;;;1.97;;
1320;SDS011;653;51.480;11.992;2022-07-09T12:54:28;2.57;;;2.10;;
1320;SDS011;653;51.480;11.992;2022-07-09T12:56:53;2.00;;;1.80;;
1320;SDS011;653;51.480;11.992;2022-07-09T12:59:20;2.17;;;1.97;;
1320;SDS011;653;51.480;11.992;2022-07-09T13:01:45;2.10;;;1.80;;
1320;SDS011;653;51.480;11.992;2022-07-09T13:04:11;2.63;;;2.43;;
1320;SDS011;653;51.480;11.992;2022-07-09T13:06:36;2.63;;;1.90;;
1320;SDS011;653;51.480;11.992;2022-07-09T13:09:03;1.83;;;1.70;;
1320;SDS011;653;51.480;11.992;2022-07-09T13:11:32;4.27;;;2.23;;
1320;SDS011;653;51.480;11.992;2022-07-09T13:13:58;2.40;;;2.20;;
1320;SDS011;653;51.480;11.992;2022-07-09T13:16:24;2.27;;;1.90;;
1320;SDS011;653;51.480;11.992;2022-07-09T13:18:50;2.80;;;2.47;;
1320;SDS011;653;51.480;11.992;2022-07-09T13:21:19;2.70;;;2.50;;
1320;SDS011;653;51.480;11.992;2022-07-09T13:23:45;4.33;;;2.57;;
1320;SDS011;653;51.480;11.992;2022-07-09T13:26:11;2.60;;;2.40;;
1320;SDS011;653;51.480;11.992;2022-07-09T13:28:37;2.70;;;2.50;;
1320;SDS011;653;51.480;11.992;2022-07-09T13:31:03;3.00;;;2.80;;
1320;SDS011;653;51.480;11.992;2022-07-09T13:33:28;3.40;;;2.87;;
1320;SDS011;653;51.480;11.992;2022-07-09T13:35:54;3.10;;;2.90;;
1320;SDS011;653;51.480;11.992;2022-07-09T13:38:19;3.30;;;3.03;;
1320;SDS011;653;51.480;11.992;2022-07-09T13:40:45;3.40;;;3.10;;
1320;SDS011;653;51.480;11.992;2022-07-09T13:43:10;4.00;;;3.70;;
1320;SDS011;653;51.480;11.992;2022-07-09T13:45:35;3.60;;;3.27;;
1320;SDS011;653;51.480;11.992;2022-07-09T13:48:01;5.60;;;3.00;;
1320;SDS011;653;51.480;11.992;2022-07-09T13:50:26;3.03;;;2.83;;
1320;SDS011;653;51.480;11.992;2022-07-09T13:52:51;3.50;;;3.13;;
1320;SDS011;653;51.480;11.992;2022-07-09T13:55:17;12.37;;;2.93;;
1320;SDS011;653;51.480;11.992;2022-07-09T13:57:43;3.30;;;2.93;;
1320;SDS011;653;51.480;11.992;2022-07-09T14:00:08;2.80;;;2.60;;
1320;SDS011;653;51.480;11.992;2022-07-09T14:02:34;2.70;;;2.50;;
1320;SDS011;653;51.480;11.992;2022-07-09T14:05:00;5.43;;;2.53;;
1320;SDS011;653;51.480;11.992;2022-07-09T14:07:26;3.07;;;2.83;;
1320;SDS011;653;51.480;11.992;2022-07-09T14:09:52;2.97;;;2.77;;
1320;SDS011;653;51.480;11.992;2022-07-09T14:12:17;2.80;;;2.60;;
1320;SDS011;653;51.480;11.992;2022-07-09T14:14:43;2.87;;;2.67;;
1320;SDS011;653;51.480;11.992;2022-07-09T14:17:08;3.20;;;2.57;;
1320;SDS011;653;51.480;11.992;2022-07-09T14:19:34;3.07;;;2.23;;
1320;SDS011;653;51.480;11.992;2022-07-09T14:22:00;3.07;;;2.77;;
1320;SDS011;653;51.480;11.992;2022-07-09T14:24:25;2.40;;;2.20;;
1320;SDS011;653;51.480;11.992;2022-07-09T14:26:51;4.33;;;3.00;;
1320;SDS011;653;51.480;11.992;2022-07-09T14:29:16;3.10;;;2.77;;
1320;SDS011;653;51.480;11.992;2022-07-09T14:31:41;3.10;;;2.80;;
1320;SDS011;653;51.480;11.992;2022-07-09T14:34:07;3.10;;;2.80;;
1320;SDS011;653;51.480;11.992;2022-07-09T14:36:32;3.03;;;2.70;;
1320;SDS011;653;51.480;11.992;2022-07-09T14:38:58;3.00;;;2.80;;
1320;SDS011;653;51.480;11.992;2022-07-09T14:41:24;2.90;;;2.70;;
1320;SDS011;653;51.480;11.992;2022-07-09T14:43:49;3.60;;;3.27;;
1320;SDS011;653;51.480;11.992;2022-07-09T14:46:15;2.63;;;2.43;;
1320;SDS011;653;51.480;11.992;2022-07-09T14:48:40;2.60;;;2.50;;
1320;SDS011;653;51.480;11.992;2022-07-09T14:51:06;3.00;;;2.80;;
1320;SDS011;653;51.480;11.992;2022-07-09T14:53:32;3.40;;;3.20;;
1320;SDS011;653;51.480;11.992;2022-07-09T14:55:58;3.20;;;2.40;;
1320;SDS011;653;51.480;11.992;2022-07-09T14:58:23;2.90;;;2.60;;
1320;SDS011;653;51.480;11.992;2022-07-09T15:00:48;2.70;;;2.53;;
1320;SDS011;653;51.480;11.992;2022-07-09T15:03:14;2.70;;;2.50;;
1320;SDS011;653;51.480;11.992;2022-07-09T15:05:39;2.70;;;2.50;;
1320;SDS011;653;51.480;11.992;2022-07-09T15:08:05;2.77;;;2.50;;
1320;SDS011;653;51.480;11.992;2022-07-09T15:10:30;2.53;;;2.30;;
1320;SDS011;653;51.480;11.992;2022-07-09T15:12:55;2.57;;;2.37;;
1320;SDS011;653;51.480;11.992;2022-07-09T15:15:21;4.17;;;2.93;;
1320;SDS011;653;51.480;11.992;2022-07-09T15:17:46;2.90;;;2.70;;
1320;SDS011;653;51.480;11.992;2022-07-09T15:20:18;3.83;;;2.90;;